createdAt,value
2022-09-26T00:01:34.857Z,99613.00
2022-09-26T00:04:05.921Z,99618.91
2022-09-26T00:06:34.662Z,99611.13
2022-09-26T00:09:02.768Z,99616.66
2022-09-26T00:11:34.508Z,99625.28
2022-09-26T00:14:06.067Z,99619.88
2022-09-26T00:16:35.916Z,99614.25
2022-09-26T00:19:05.299Z,99614.56
2022-09-26T00:21:33.702Z,99606.78
2022-09-26T00:24:03.129Z,99607.84
2022-09-26T00:26:34.914Z,99607.84
2022-09-26T00:29:07.310Z,99606.91
2022-09-26T00:31:39.375Z,99603.91
2022-09-26T00:34:08.056Z,99612.22
2022-09-26T00:36:38.313Z,99608.09
2022-09-26T00:39:08.765Z,99606.19
2022-09-26T00:41:39.514Z,99605.28
2022-09-26T00:44:46.509Z,99601.63
2022-09-26T00:47:30.514Z,99612.41
2022-09-26T00:50:03.747Z,99599.97
2022-09-26T00:52:37.047Z,99593.16
2022-09-26T00:55:08.568Z,99590.34
2022-09-26T00:57:42.967Z,99596.00
2022-09-26T01:00:15.389Z,99593.56
2022-09-26T01:02:46.505Z,99584.63
2022-09-26T01:05:18.271Z,99584.00
2022-09-26T01:07:48.942Z,99582.22
2022-09-26T01:10:17.517Z,99581.22
2022-09-26T01:12:46.925Z,99578.91
2022-09-26T01:15:16.491Z,99581.72
2022-09-26T01:17:46.931Z,99572.50
2022-09-26T01:20:27.666Z,99570.06
2022-09-26T01:23:45.387Z,99574.19
2022-09-26T01:27:00.362Z,99564.97
2022-09-26T01:30:03.915Z,99558.72
2022-09-26T01:32:54.740Z,99554.38
2022-09-26T01:36:05.620Z,99553.66
2022-09-26T01:38:46.328Z,99550.56
2022-09-26T01:41:32.674Z,99550.44
2022-09-26T01:44:10.863Z,99550.88
2022-09-26T01:46:47.840Z,99548.50
2022-09-26T01:49:27.247Z,99547.53
2022-09-26T01:52:00.959Z,99549.09
2022-09-26T01:54:36.866Z,99542.88
2022-09-26T01:57:07.733Z,99538.31
2022-09-26T01:59:42.636Z,99545.38
2022-09-26T02:02:17.380Z,99534.50
2022-09-26T02:04:54.177Z,99541.22
2022-09-26T02:07:31.409Z,99540.19
2022-09-26T02:10:04.905Z,99536.03
2022-09-26T02:12:35.992Z,99531.81
2022-09-26T02:15:08.238Z,99534.50
2022-09-26T02:17:42.489Z,99527.44
2022-09-26T02:20:16.887Z,99521.03
2022-09-26T02:22:47.184Z,99517.00
2022-09-26T02:25:16.659Z,99517.63
2022-09-26T02:27:46.431Z,99512.13
2022-09-26T02:30:14.915Z,99509.44
2022-09-26T02:32:43.201Z,99500.53
2022-09-26T02:35:36.797Z,99497.41
2022-09-26T02:38:08.096Z,99495.34
2022-09-26T02:40:52.066Z,99491.94
2022-09-26T02:43:44.278Z,99496.19
2022-09-26T02:46:29.802Z,99488.94
2022-09-26T02:49:13.237Z,99491.38
2022-09-26T02:52:02.530Z,99486.22
2022-09-26T02:54:40.753Z,99478.66
2022-09-26T02:57:22.602Z,99485.56
2022-09-26T02:59:59.805Z,99478.75
2022-09-26T03:02:35.217Z,99477.31
2022-09-26T03:05:14.688Z,99464.66
2022-09-26T03:07:48.321Z,99462.19
2022-09-26T03:10:18.177Z,99461.25
2022-09-26T03:12:47.542Z,99457.22
2022-09-26T03:15:17.445Z,99455.25
2022-09-26T03:17:51.521Z,99450.16
2022-09-26T03:20:22.696Z,99446.31
2022-09-26T03:22:55.055Z,99452.03
2022-09-26T03:25:27.190Z,99447.47
2022-09-26T03:28:10.788Z,99438.16
2022-09-26T03:30:39.843Z,99438.03
2022-09-26T03:33:34.254Z,99435.34
2022-09-26T03:36:06.548Z,99431.72
2022-09-26T03:38:36.251Z,99434.00
2022-09-26T03:41:19.712Z,99427.50
2022-09-26T03:44:05.494Z,99430.94
2022-09-26T03:46:53.964Z,99423.03
2022-09-26T03:49:22.119Z,99415.09
2022-09-26T03:51:51.716Z,99422.09
2022-09-26T03:54:21.807Z,99420.44
2022-09-26T03:56:50.503Z,99408.44
2022-09-26T03:59:18.838Z,99405.72
2022-09-26T04:01:49.078Z,99396.53
2022-09-26T04:04:17.289Z,99391.56
2022-09-26T04:06:46.131Z,99381.94
2022-09-26T04:09:17.722Z,99381.94
2022-09-26T04:11:54.601Z,99369.13
2022-09-26T04:14:23.118Z,99368.91
2022-09-26T04:16:58.435Z,99371.72
2022-09-26T04:19:30.602Z,99368.59
2022-09-26T04:21:59.972Z,99360.53
2022-09-26T04:24:32.934Z,99362.16
2022-09-26T04:27:02.773Z,99360.13
2022-09-26T04:29:33.727Z,99348.81
2022-09-26T04:32:12.344Z,99358.47
2022-09-26T04:35:03.265Z,99349.66
2022-09-26T04:37:31.317Z,99342.28
2022-09-26T04:39:59.606Z,99345.09
2022-09-26T04:42:33.574Z,99338.78
2022-09-26T04:45:02.073Z,99345.66
2022-09-26T04:47:30.450Z,99336.31
2022-09-26T04:50:17.649Z,99340.00
2022-09-26T04:53:02.852Z,99327.00
2022-09-26T04:55:31.822Z,99328.13
2022-09-26T04:58:02.341Z,99342.16
2022-09-26T05:00:31.965Z,99345.44
2022-09-26T05:03:05.227Z,99338.66
2022-09-26T05:05:34.012Z,99329.06
2022-09-26T05:08:02.823Z,99332.16
2022-09-26T05:10:32.856Z,99331.09
2022-09-26T05:13:06.077Z,99329.41
2022-09-26T05:15:39.466Z,99325.38
2022-09-26T05:18:11.503Z,99326.56
2022-09-26T05:20:40.366Z,99317.38
2022-09-26T05:23:09.260Z,99313.88
2022-09-26T05:25:57.658Z,99311.53
2022-09-26T05:28:28.614Z,99302.22
2022-09-26T05:30:57.411Z,99302.03
2022-09-26T05:33:25.560Z,99300.94
2022-09-26T05:35:54.939Z,99293.41
2022-09-26T05:38:23.320Z,99299.31
2022-09-26T05:40:59.850Z,99305.56
2022-09-26T05:43:33.172Z,99297.78
2022-09-26T05:46:05.151Z,99295.19
2022-09-26T05:48:39.676Z,99292.72
2022-09-26T05:51:14.187Z,99297.66
2022-09-26T05:53:45.915Z,99291.41
2022-09-26T05:56:19.258Z,99286.56
2022-09-26T05:59:12.672Z,99293.88
2022-09-26T06:01:59.498Z,99290.72
2022-09-26T06:04:45.162Z,99285.16
2022-09-26T06:07:31.899Z,99285.84
2022-09-26T06:10:01.198Z,99280.31
2022-09-26T06:12:38.329Z,99285.13
2022-09-26T06:15:09.575Z,99281.34
2022-09-26T06:17:38.778Z,99278.53
2022-09-26T06:20:08.678Z,99271.91
2022-09-26T06:22:42.193Z,99279.69
2022-09-26T06:25:11.807Z,99285.94
2022-09-26T06:27:42.555Z,99279.44
2022-09-26T06:30:12.921Z,99278.53
2022-09-26T06:32:42.967Z,99276.50
2022-09-26T06:35:22.632Z,99269.34
2022-09-26T06:38:11.486Z,99270.03
2022-09-26T06:40:39.646Z,99261.22
2022-09-26T06:43:07.675Z,99252.69
2022-09-26T06:45:57.038Z,99258.28
2022-09-26T06:48:32.310Z,99255.19
2022-09-26T06:51:07.086Z,99263.50
2022-09-26T06:53:36.132Z,99256.28
2022-09-26T06:56:05.297Z,99257.16
2022-09-26T06:58:34.375Z,99255.59
2022-09-26T07:01:08.581Z,99251.50
2022-09-26T07:04:00.389Z,99246.72
2022-09-26T07:06:47.496Z,99238.53
2022-09-26T07:09:16.441Z,99243.06
2022-09-26T07:12:14.004Z,99247.16
2022-09-26T07:14:42.853Z,99242.34
2022-09-26T07:17:25.556Z,99244.13
2022-09-26T07:20:26.954Z,99245.72
2022-09-26T07:23:10.684Z,99240.88
2022-09-26T07:25:40.556Z,99240.19
2022-09-26T07:28:11.399Z,99234.28
2022-09-26T07:30:50.461Z,99235.44
2022-09-26T07:33:52.822Z,99234.34
2022-09-26T07:36:21.319Z,99234.16
2022-09-26T07:38:53.890Z,99229.09
2022-09-26T07:41:25.393Z,99221.53
2022-09-26T07:47:01.120Z,99227.63
2022-09-26T07:49:48.542Z,99215.94
2022-09-26T07:52:35.234Z,99222.69
2022-09-26T07:55:17.303Z,99223.63
2022-09-26T07:58:14.997Z,99223.31
2022-09-26T08:00:53.493Z,99221.31
2022-09-26T08:03:42.181Z,99221.09
2022-09-26T08:06:24.154Z,99224.13
2022-09-26T08:08:54.665Z,99222.41
2022-09-26T08:11:41.916Z,99224.78
2022-09-26T08:14:37.697Z,99209.94
2022-09-26T08:17:19.131Z,99213.34
2022-09-26T08:19:47.977Z,99216.75
2022-09-26T08:22:18.159Z,99216.59
2022-09-26T08:24:50.893Z,99218.59
2022-09-26T08:27:59.573Z,99220.63
2022-09-26T08:30:31.279Z,99217.25
2022-09-26T08:33:02.191Z,99211.66
2022-09-26T08:35:38.457Z,99209.03
2022-09-26T08:38:27.995Z,99202.19
2022-09-26T08:41:17.439Z,99202.28
2022-09-26T08:44:24.358Z,99203.03
2022-09-26T08:47:28.422Z,99185.59
2022-09-26T08:50:24.244Z,99197.28
2022-09-26T08:52:56.599Z,99201.69
2022-09-26T08:55:31.042Z,99200.22
2022-09-26T08:58:02.612Z,99197.25
2022-09-26T09:00:34.405Z,99202.00
2022-09-26T09:03:18.880Z,99186.38
2022-09-26T09:05:51.336Z,99185.81
2022-09-26T09:08:23.779Z,99184.88
2022-09-26T09:11:21.148Z,99190.03
2022-09-26T09:14:09.833Z,99177.66
2022-09-26T09:17:10.146Z,99180.09
2022-09-26T09:20:10.262Z,99172.09
2022-09-26T09:23:12.935Z,99176.56
2022-09-26T09:25:50.592Z,99168.28
2022-09-26T09:28:32.255Z,99170.75
2022-09-26T09:31:02.173Z,99153.50
2022-09-26T09:33:35.828Z,99161.75
2022-09-26T09:36:25.919Z,99158.66
2022-09-26T09:39:22.299Z,99153.81
2022-09-26T09:42:01.266Z,99148.41
2022-09-26T09:44:45.637Z,99146.25
2022-09-26T09:47:16.549Z,99134.13
2022-09-26T09:49:45.943Z,99143.06
2022-09-26T09:52:27.335Z,99136.69
2022-09-26T09:55:06.955Z,99132.59
2022-09-26T09:58:07.280Z,99126.06
2022-09-26T10:00:42.638Z,99122.72
2022-09-26T10:03:26.723Z,99120.84
2022-09-26T10:05:59.816Z,99109.31
2022-09-26T10:08:41.364Z,99106.47
2022-09-26T10:11:26.300Z,99101.34
2022-09-26T10:14:03.424Z,99090.72
2022-09-26T10:17:18.946Z,99093.75
2022-09-26T10:20:10.277Z,99100.34
2022-09-26T10:22:45.808Z,99101.84
2022-09-26T10:25:26.718Z,99097.00
2022-09-26T10:27:57.603Z,99092.91
2022-09-26T10:30:33.229Z,99096.88
2022-09-26T10:33:06.761Z,99098.59
2022-09-26T10:36:05.107Z,99087.00
2022-09-26T10:38:55.556Z,99090.25
2022-09-26T10:41:24.858Z,99087.19
2022-09-26T10:43:57.668Z,99082.72
2022-09-26T10:46:46.513Z,99088.72
2022-09-26T10:50:02.832Z,99083.22
2022-09-26T10:52:40.760Z,99079.13
2022-09-26T10:55:15.008Z,99070.16
2022-09-26T10:57:46.838Z,99073.97
2022-09-26T11:00:21.967Z,99073.00
2022-09-26T11:02:52.854Z,99080.03
2022-09-26T11:05:42.224Z,99075.13
2022-09-26T11:08:17.356Z,99075.69
2022-09-26T11:11:00.471Z,99078.56
2022-09-26T11:13:41.543Z,99063.22
2022-09-26T11:16:17.176Z,99064.69
2022-09-26T11:18:53.465Z,99057.38
2022-09-26T11:21:29.675Z,99061.25
2022-09-26T11:24:07.069Z,99053.84
2022-09-26T11:26:43.643Z,99050.56
2022-09-26T11:29:18.298Z,99046.56
2022-09-26T11:32:05.184Z,99048.66
2022-09-26T11:34:53.286Z,99045.25
2022-09-26T11:37:33.192Z,99044.00
2022-09-26T11:40:30.031Z,99038.66
2022-09-26T11:43:11.095Z,99033.97
2022-09-26T11:46:04.289Z,99038.41
2022-09-26T11:49:24.506Z,99019.69
2022-09-26T11:52:24.656Z,99009.53
2022-09-26T11:55:09.664Z,99024.66
2022-09-26T11:57:49.230Z,99011.78
2022-09-26T12:00:27.610Z,99006.81
2022-09-26T12:03:23.064Z,98988.81
2022-09-26T12:05:59.859Z,98993.91
2022-09-26T12:08:48.194Z,98992.16
2022-09-26T12:11:34.215Z,98992.06
2022-09-26T12:14:13.921Z,98994.09
2022-09-26T12:16:51.956Z,98990.34
2022-09-26T12:19:34.272Z,98976.31
2022-09-26T12:22:27.978Z,98969.78
2022-09-26T12:25:22.261Z,98959.53
2022-09-26T12:28:02.320Z,98946.41
2022-09-26T12:30:36.426Z,98938.03
2022-09-26T12:33:33.684Z,98926.09
2022-09-26T12:36:10.942Z,98929.44
2022-09-26T12:38:57.070Z,98929.78
2022-09-26T12:41:39.666Z,98936.19
2022-09-26T12:44:27.334Z,98929.47
2022-09-26T12:47:15.942Z,98917.53
2022-09-26T12:50:14.705Z,98910.88
2022-09-26T12:53:19.861Z,98900.44
2022-09-26T12:55:59.868Z,98902.47
2022-09-26T12:58:50.575Z,98903.38
2022-09-26T13:01:37.890Z,98911.88
2022-09-26T13:04:30.177Z,98911.78
2022-09-26T13:07:20.947Z,98906.22
2022-09-26T13:10:18.805Z,98906.06
2022-09-26T13:13:05.579Z,98891.78
2022-09-26T13:15:40.135Z,98880.19
2022-09-26T13:18:23.039Z,98879.56
2022-09-26T13:21:02.378Z,98874.50
2022-09-26T13:23:35.943Z,98881.13
2022-09-26T13:26:05.896Z,98875.03
2022-09-26T13:28:47.536Z,98871.00
2022-09-26T13:31:31.822Z,98869.75
2022-09-26T13:34:06.610Z,98873.81
2022-09-26T13:36:37.396Z,98874.59
2022-09-26T13:39:11.032Z,98874.50
2022-09-26T13:41:44.213Z,98861.63
2022-09-26T13:44:28.560Z,98853.75
2022-09-26T13:47:10.215Z,98864.38
2022-09-26T13:49:52.231Z,98859.13
2022-09-26T13:52:35.484Z,98848.88
2022-09-26T13:55:12.424Z,98844.34
2022-09-26T13:57:48.028Z,98841.88
2022-09-26T14:00:49.441Z,98836.50
2022-09-26T14:03:48.189Z,98820.06
2022-09-26T14:06:30.913Z,98810.00
2022-09-26T14:09:26.034Z,98814.75
2022-09-26T14:12:30.695Z,98809.19
2022-09-26T14:15:18.587Z,98812.50
2022-09-26T14:18:09.302Z,98812.38
2022-09-26T14:20:53.395Z,98802.06
2022-09-26T14:24:13.032Z,98796.91
2022-09-26T14:26:43.846Z,98795.16
2022-09-26T14:29:26.869Z,98799.13
2022-09-26T14:32:20.156Z,98787.50
2022-09-26T14:34:54.975Z,98785.53
2022-09-26T14:37:44.668Z,98773.44
2022-09-26T14:40:31.278Z,98769.69
2022-09-26T14:43:16.178Z,98763.78
2022-09-26T14:45:49.004Z,98759.94
2022-09-26T14:48:30.374Z,98758.34
2022-09-26T14:51:02.966Z,98739.19
2022-09-26T14:53:37.374Z,98741.16
2022-09-26T14:56:13.413Z,98735.06
2022-09-26T14:58:51.450Z,98731.72
2022-09-26T15:01:31.829Z,98723.91
2022-09-26T15:04:07.260Z,98720.06
2022-09-26T15:06:42.931Z,98721.41
2022-09-26T15:09:13.984Z,98703.53
2022-09-26T15:11:46.028Z,98711.94
2022-09-26T15:14:31.757Z,98705.03
2022-09-26T15:17:02.498Z,98702.94
2022-09-26T15:19:36.799Z,98704.81
2022-09-26T15:22:12.953Z,98692.28
2022-09-26T15:24:41.576Z,98695.56
2022-09-26T15:27:16.055Z,98689.53
2022-09-26T15:29:47.770Z,98687.75
2022-09-26T15:32:20.724Z,98683.38
2022-09-26T15:34:52.031Z,98681.75
2022-09-26T15:37:24.048Z,98673.69
2022-09-26T15:39:52.734Z,98672.44
2022-09-26T15:42:43.878Z,98665.91
2022-09-26T15:45:27.190Z,98662.63
2022-09-26T15:47:56.419Z,98653.00
2022-09-26T15:50:29.021Z,98660.50
2022-09-26T15:53:05.023Z,98655.63
2022-09-26T15:55:37.177Z,98650.25
2022-09-26T15:58:08.689Z,98652.03
2022-09-26T16:00:41.980Z,98651.06
2022-09-26T16:03:35.413Z,98648.63
2022-09-26T16:06:17.685Z,98651.06
2022-09-26T16:08:51.600Z,98648.47
2022-09-26T16:11:21.189Z,98641.28
2022-09-26T16:13:53.748Z,98639.66
2022-09-26T16:16:32.217Z,98629.34
2022-09-26T16:19:03.384Z,98635.03
2022-09-26T16:21:36.880Z,98635.69
2022-09-26T16:24:28.084Z,98625.22
2022-09-26T16:26:57.887Z,98624.25
2022-09-26T16:29:36.826Z,98630.31
2022-09-26T16:32:05.709Z,98625.72
2022-09-26T16:34:35.384Z,98622.94
2022-09-26T16:37:04.957Z,98612.66
2022-09-26T16:39:35.749Z,98608.25
2022-09-26T16:42:15.481Z,98605.28
2022-09-26T16:44:52.155Z,98598.56
2022-09-26T16:47:35.406Z,98597.75
2022-09-26T16:50:28.034Z,98593.81
2022-09-26T16:52:58.473Z,98594.97
2022-09-26T16:55:27.399Z,98582.19
2022-09-26T16:57:58.961Z,98580.59
2022-09-26T17:00:49.946Z,98573.22
2022-09-26T17:03:25.331Z,98579.44
2022-09-26T17:05:55.959Z,98569.00
2022-09-26T17:08:29.466Z,98565.69
2022-09-26T17:11:03.160Z,98562.59
2022-09-26T17:13:35.198Z,98556.41
2022-09-26T17:16:03.898Z,98552.28
2022-09-26T17:18:33.811Z,98553.09
2022-09-26T17:21:02.188Z,98549.81
2022-09-26T17:23:40.342Z,98546.97
2022-09-26T17:26:18.685Z,98547.66
2022-09-26T17:28:47.104Z,98552.25
2022-09-26T17:31:19.643Z,98546.59
2022-09-26T17:33:49.843Z,98542.88
2022-09-26T17:36:23.242Z,98532.53
2022-09-26T17:38:53.577Z,98542.06
2022-09-26T17:41:22.231Z,98540.00
2022-09-26T17:43:59.060Z,98531.53
2022-09-26T17:46:29.722Z,98523.09
2022-09-26T17:48:59.361Z,98531.06
2022-09-26T17:51:27.886Z,98524.38
2022-09-26T17:53:59.624Z,98528.59
2022-09-26T17:56:28.628Z,98523.09
2022-09-26T17:58:57.537Z,98523.63
2022-09-26T18:01:27.927Z,98520.28
2022-09-26T18:04:01.323Z,98523.56
2022-09-26T18:06:33.088Z,98519.25
2022-09-26T18:09:10.341Z,98527.41
2022-09-26T18:11:41.695Z,98526.81
2022-09-26T18:14:17.164Z,98532.97
2022-09-26T18:16:46.574Z,98525.09
2022-09-26T18:19:14.918Z,98556.69
2022-09-26T18:21:44.242Z,98540.31
2022-09-26T18:24:19.848Z,98553.56
2022-09-26T18:26:50.812Z,98544.75
2022-09-26T18:29:23.904Z,98539.91
2022-09-26T18:31:51.844Z,98539.31
2022-09-26T18:34:20.503Z,98541.25
2022-09-26T18:36:50.090Z,98538.28
2022-09-26T18:39:19.904Z,98546.22
2022-09-26T18:41:50.799Z,98538.59
2022-09-26T18:44:20.182Z,98537.84
2022-09-26T18:46:49.285Z,98534.78
2022-09-26T18:49:17.872Z,98537.00
2022-09-26T18:51:46.893Z,98533.84
2022-09-26T18:54:16.885Z,98534.34
2022-09-26T18:57:04.445Z,98524.53
2022-09-26T18:59:32.391Z,98530.44
2022-09-26T19:02:02.696Z,98526.41
2022-09-26T19:04:31.505Z,98533.97
2022-09-26T19:07:02.208Z,98531.09
2022-09-26T19:09:34.143Z,98537.41
2022-09-26T19:12:04.432Z,98539.03
2022-09-26T19:14:32.874Z,98530.50
2022-09-26T19:17:01.051Z,98529.38
2022-09-26T19:19:30.203Z,98528.50
2022-09-26T19:22:00.324Z,98524.63
2022-09-26T19:24:32.521Z,98523.09
2022-09-26T19:27:06.620Z,98520.03
2022-09-26T19:29:39.706Z,98511.75
2022-09-26T19:32:11.991Z,98509.75
2022-09-26T19:34:40.367Z,98508.50
2022-09-26T19:37:10.407Z,98503.88
2022-09-26T19:39:38.897Z,98491.28
2022-09-26T19:42:09.804Z,98493.47
2022-09-26T19:44:37.477Z,98490.22
2022-09-26T19:47:05.498Z,98487.38
2022-09-26T19:49:33.606Z,98490.34
2022-09-26T19:52:02.542Z,98481.34
2022-09-26T19:54:30.465Z,98475.78
2022-09-26T19:56:58.837Z,98484.16
2022-09-26T19:59:28.112Z,98478.69
2022-09-26T20:01:56.242Z,98470.63
2022-09-26T20:04:24.222Z,98469.69
2022-09-26T20:06:51.905Z,98461.88
2022-09-26T20:09:21.368Z,98463.25
2022-09-26T20:11:49.517Z,98465.31
2022-09-26T20:14:26.479Z,98454.97
2022-09-26T20:16:59.095Z,98446.63
2022-09-26T20:19:35.199Z,98449.88
2022-09-26T20:22:05.324Z,98447.88
2022-09-26T20:24:34.331Z,98439.50
2022-09-26T20:27:04.311Z,98430.22
2022-09-26T20:29:52.192Z,98426.13
2022-09-26T20:32:21.565Z,98424.78
2022-09-26T20:34:49.715Z,98419.47
2022-09-26T20:37:19.980Z,98420.16
2022-09-26T20:39:48.121Z,98411.78
2022-09-26T20:42:18.826Z,98411.88
2022-09-26T20:44:48.682Z,98412.09
2022-09-26T20:47:21.828Z,98414.44
2022-09-26T20:49:54.861Z,98394.84
2022-09-26T21:07:38.956Z,98383.97
2022-09-26T21:10:22.055Z,98376.63
2022-09-26T21:12:50.146Z,98380.31
2022-09-26T21:15:17.955Z,98369.22
2022-09-26T21:17:47.710Z,98360.47
2022-09-26T21:20:18.013Z,98358.06
2022-09-26T21:23:01.785Z,98363.78
2022-09-26T21:25:31.187Z,98361.47
2022-09-26T21:28:01.247Z,98351.38
2022-09-26T21:30:30.477Z,98352.56
2022-09-26T21:33:00.096Z,98348.88
2022-09-26T21:35:31.653Z,98339.25
2022-09-26T21:38:02.298Z,98334.88
2022-09-26T21:40:33.168Z,98334.34
2022-09-26T21:43:07.141Z,98333.19
2022-09-26T21:45:35.703Z,98325.16
2022-09-26T21:48:04.101Z,98332.53
2022-09-26T21:50:32.174Z,98320.75
2022-09-26T21:53:04.713Z,98327.44
2022-09-26T21:55:37.256Z,98311.16
2022-09-26T21:58:10.383Z,98313.16
2022-09-26T22:00:38.538Z,98300.78
2022-09-26T22:03:06.797Z,98301.44
2022-09-26T22:05:35.070Z,98302.78
2022-09-26T22:08:04.539Z,98295.91
2022-09-26T22:10:32.948Z,98298.00
2022-09-26T22:13:01.186Z,98290.16
2022-09-26T22:15:29.699Z,98289.41
2022-09-26T22:17:58.116Z,98286.31
2022-09-26T22:20:26.611Z,98282.97
2022-09-26T22:22:55.491Z,98286.97
2022-09-26T22:25:25.392Z,98281.53
2022-09-26T22:27:53.650Z,98281.66
2022-09-26T22:30:21.844Z,98276.94
2022-09-26T22:32:50.818Z,98275.00
2022-09-26T22:35:19.099Z,98270.28
2022-09-26T22:37:47.170Z,98271.91
2022-09-26T22:40:15.523Z,98261.31
2022-09-26T22:42:44.908Z,98264.91
2022-09-26T22:45:12.893Z,98262.47
2022-09-26T22:47:40.658Z,98260.44
2022-09-26T22:50:09.447Z,98258.47
2022-09-26T22:52:37.315Z,98251.38
2022-09-26T22:55:05.960Z,98244.72
2022-09-26T22:57:33.919Z,98243.91
2022-09-26T23:00:03.926Z,98242.72
2022-09-26T23:02:31.850Z,98243.53
2022-09-26T23:04:59.865Z,98237.75
2022-09-26T23:07:27.723Z,98242.94
2022-09-26T23:09:55.581Z,98233.63
2022-09-26T23:12:23.467Z,98224.63
2022-09-26T23:14:51.134Z,98222.72
2022-09-26T23:17:20.421Z,98215.69
2022-09-26T23:19:48.062Z,98211.59
2022-09-26T23:22:15.842Z,98215.28
2022-09-26T23:24:45.989Z,98219.81
2022-09-26T23:27:13.737Z,98221.00
2022-09-26T23:29:41.975Z,98219.91
2022-09-26T23:32:09.997Z,98216.72
2022-09-26T23:34:39.184Z,98203.06
2022-09-26T23:37:06.915Z,98214.75
2022-09-26T23:39:34.915Z,98209.44
2022-09-26T23:42:02.582Z,98206.78
2022-09-26T23:44:30.506Z,98195.59
2022-09-26T23:46:59.888Z,98207.25
2022-09-26T23:49:28.326Z,98204.66
2022-09-26T23:51:57.482Z,98202.56
2022-09-26T23:54:25.178Z,98188.91
2022-09-26T23:56:53.127Z,98197.28
2022-09-26T23:59:20.933Z,98188.97
